sensor_id;sensor_type;location;lat;lon;timestamp;temperature;humidity
62912;DHT22;49111;51.028;4.218;2023-04-19T00:00:37;11.20;99.90
62912;DHT22;49111;51.028;4.218;2023-04-19T00:03:05;11.20;99.90
62912;DHT22;49111;51.028;4.218;2023-04-19T00:05:31;11.20;99.90
62912;DHT22;49111;51.028;4.218;2023-04-19T00:07:57;11.20;99.90
62912;DHT22;49111;51.028;4.218;2023-04-19T00:10:23;11.20;99.90
62912;DHT22;49111;51.028;4.218;2023-04-19T00:12:49;11.10;99.90
62912;DHT22;49111;51.028;4.218;2023-04-19T00:15:15;11.00;99.90
62912;DHT22;49111;51.028;4.218;2023-04-19T00:17:41;11.10;99.90
62912;DHT22;49111;51.028;4.218;2023-04-19T00:20:07;11.10;99.90
62912;DHT22;49111;51.028;4.218;2023-04-19T00:22:33;11.10;99.90
62912;DHT22;49111;51.028;4.218;2023-04-19T00:25:00;11.20;99.90
62912;DHT22;49111;51.028;4.218;2023-04-19T00:27:26;11.20;99.90
62912;DHT22;49111;51.028;4.218;2023-04-19T00:29:51;11.20;99.90
62912;DHT22;49111;51.028;4.218;2023-04-19T00:32:17;11.10;99.90
62912;DHT22;49111;51.028;4.218;2023-04-19T00:34:43;11.00;99.90
62912;DHT22;49111;51.028;4.218;2023-04-19T00:37:09;11.00;99.90
62912;DHT22;49111;51.028;4.218;2023-04-19T00:39:36;10.90;99.90
62912;DHT22;49111;51.028;4.218;2023-04-19T00:42:04;11.00;99.90
62912;DHT22;49111;51.028;4.218;2023-04-19T00:44:30;11.00;99.90
62912;DHT22;49111;51.028;4.218;2023-04-19T00:46:56;11.00;99.90
62912;DHT22;49111;51.028;4.218;2023-04-19T00:49:22;10.90;99.90
62912;DHT22;49111;51.028;4.218;2023-04-19T00:51:49;11.00;99.90
62912;DHT22;49111;51.028;4.218;2023-04-19T00:54:16;10.90;99.90
62912;DHT22;49111;51.028;4.218;2023-04-19T00:56:43;10.80;99.90
62912;DHT22;49111;51.028;4.218;2023-04-19T00:59:13;10.70;99.90
62912;DHT22;49111;51.028;4.218;2023-04-19T01:01:39;10.70;99.90
62912;DHT22;49111;51.028;4.218;2023-04-19T01:04:07;10.80;99.90
62912;DHT22;49111;51.028;4.218;2023-04-19T01:06:37;10.80;99.90
62912;DHT22;49111;51.028;4.218;2023-04-19T01:09:04;10.80;99.90
62912;DHT22;49111;51.028;4.218;2023-04-19T01:11:30;10.70;99.90
62912;DHT22;49111;51.028;4.218;2023-04-19T01:13:56;10.70;99.90
62912;DHT22;49111;51.028;4.218;2023-04-19T01:16:25;10.70;99.90
62912;DHT22;49111;51.028;4.218;2023-04-19T01:18:51;10.60;99.90
62912;DHT22;49111;51.028;4.218;2023-04-19T01:21:17;10.70;99.90
62912;DHT22;49111;51.028;4.218;2023-04-19T01:23:43;10.70;99.90
62912;DHT22;49111;51.028;4.218;2023-04-19T01:26:09;10.70;99.90
62912;DHT22;49111;51.028;4.218;2023-04-19T01:28:35;10.70;99.90
62912;DHT22;49111;51.028;4.218;2023-04-19T01:31:01;10.70;99.90
62912;DHT22;49111;51.028;4.218;2023-04-19T01:33:27;10.70;99.90
62912;DHT22;49111;51.028;4.218;2023-04-19T01:35:53;10.60;99.90
62912;DHT22;49111;51.028;4.218;2023-04-19T01:38:18;10.60;99.90
62912;DHT22;49111;51.028;4.218;2023-04-19T01:40:44;10.60;99.90
62912;DHT22;49111;51.028;4.218;2023-04-19T01:43:15;10.50;99.90
62912;DHT22;49111;51.028;4.218;2023-04-19T01:45:42;10.50;99.90
62912;DHT22;49111;51.028;4.218;2023-04-19T01:48:08;10.50;99.90
62912;DHT22;49111;51.028;4.218;2023-04-19T01:50:34;10.60;99.90
62912;DHT22;49111;51.028;4.218;2023-04-19T01:53:00;10.60;99.90
62912;DHT22;49111;51.028;4.218;2023-04-19T01:55:26;10.60;99.90
62912;DHT22;49111;51.028;4.218;2023-04-19T01:57:52;10.60;99.90
62912;DHT22;49111;51.028;4.218;2023-04-19T02:00:19;10.50;99.90
62912;DHT22;49111;51.028;4.218;2023-04-19T02:02:46;10.50;99.90
62912;DHT22;49111;51.028;4.218;2023-04-19T02:05:14;10.50;99.90
62912;DHT22;49111;51.028;4.218;2023-04-19T02:07:40;10.50;99.90
62912;DHT22;49111;51.028;4.218;2023-04-19T02:10:09;10.50;99.90
62912;DHT22;49111;51.028;4.218;2023-04-19T02:12:35;10.60;99.90
62912;DHT22;49111;51.028;4.218;2023-04-19T02:15:02;10.60;99.90
62912;DHT22;49111;51.028;4.218;2023-04-19T02:17:33;10.70;99.90
62912;DHT22;49111;51.028;4.218;2023-04-19T02:20:00;10.80;99.90
62912;DHT22;49111;51.028;4.218;2023-04-19T02:22:26;10.80;99.90
62912;DHT22;49111;51.028;4.218;2023-04-19T02:24:52;10.80;99.90
62912;DHT22;49111;51.028;4.218;2023-04-19T02:27:17;10.90;99.90
62912;DHT22;49111;51.028;4.218;2023-04-19T02:29:43;11.00;99.90
62912;DHT22;49111;51.028;4.218;2023-04-19T02:32:11;11.10;99.90
62912;DHT22;49111;51.028;4.218;2023-04-19T02:34:37;11.00;99.90
62912;DHT22;49111;51.028;4.218;2023-04-19T02:37:03;11.20;99.90
62912;DHT22;49111;51.028;4.218;2023-04-19T02:39:29;11.20;99.90
62912;DHT22;49111;51.028;4.218;2023-04-19T02:41:55;11.20;99.90
62912;DHT22;49111;51.028;4.218;2023-04-19T02:44:21;11.30;99.90
62912;DHT22;49111;51.028;4.218;2023-04-19T02:46:53;11.30;99.90
62912;DHT22;49111;51.028;4.218;2023-04-19T02:49:20;11.40;99.90
62912;DHT22;49111;51.028;4.218;2023-04-19T02:51:46;11.40;99.90
62912;DHT22;49111;51.028;4.218;2023-04-19T02:54:13;11.30;99.90
62912;DHT22;49111;51.028;4.218;2023-04-19T02:56:41;11.40;99.90
62912;DHT22;49111;51.028;4.218;2023-04-19T02:59:07;11.40;99.90
62912;DHT22;49111;51.028;4.218;2023-04-19T03:01:33;11.40;99.90
62912;DHT22;49111;51.028;4.218;2023-04-19T03:04:02;11.50;99.90
62912;DHT22;49111;51.028;4.218;2023-04-19T03:06:28;11.60;99.90
62912;DHT22;49111;51.028;4.218;2023-04-19T03:08:55;11.60;99.90
62912;DHT22;49111;51.028;4.218;2023-04-19T03:11:23;11.60;99.90
62912;DHT22;49111;51.028;4.218;2023-04-19T03:13:49;11.70;99.90
62912;DHT22;49111;51.028;4.218;2023-04-19T03:16:15;11.70;99.90
62912;DHT22;49111;51.028;4.218;2023-04-19T03:18:42;11.70;99.90
62912;DHT22;49111;51.028;4.218;2023-04-19T03:21:09;11.70;99.90
62912;DHT22;49111;51.028;4.218;2023-04-19T03:23:46;11.70;99.90
62912;DHT22;49111;51.028;4.218;2023-04-19T03:26:13;11.80;99.90
62912;DHT22;49111;51.028;4.218;2023-04-19T03:28:48;11.80;99.90
62912;DHT22;49111;51.028;4.218;2023-04-19T03:31:30;11.80;99.90
62912;DHT22;49111;51.028;4.218;2023-04-19T03:33:57;11.80;99.90
62912;DHT22;49111;51.028;4.218;2023-04-19T03:36:28;11.80;99.90
62912;DHT22;49111;51.028;4.218;2023-04-19T03:38:54;11.80;99.90
62912;DHT22;49111;51.028;4.218;2023-04-19T03:41:25;11.70;99.90
62912;DHT22;49111;51.028;4.218;2023-04-19T03:44:00;11.80;99.90
62912;DHT22;49111;51.028;4.218;2023-04-19T03:46:26;11.80;99.90
62912;DHT22;49111;51.028;4.218;2023-04-19T03:48:57;11.70;99.90
62912;DHT22;49111;51.028;4.218;2023-04-19T03:51:23;11.80;99.90
62912;DHT22;49111;51.028;4.218;2023-04-19T03:53:49;11.70;99.90
62912;DHT22;49111;51.028;4.218;2023-04-19T03:56:17;11.70;99.90
62912;DHT22;49111;51.028;4.218;2023-04-19T03:58:43;11.70;99.90
62912;DHT22;49111;51.028;4.218;2023-04-19T04:01:17;11.70;99.90
62912;DHT22;49111;51.028;4.218;2023-04-19T04:03:44;11.70;99.90
62912;DHT22;49111;51.028;4.218;2023-04-19T04:06:10;11.70;99.90
62912;DHT22;49111;51.028;4.218;2023-04-19T04:08:35;11.70;99.90
62912;DHT22;49111;51.028;4.218;2023-04-19T04:11:01;11.70;99.90
62912;DHT22;49111;51.028;4.218;2023-04-19T04:13:28;11.60;99.90
62912;DHT22;49111;51.028;4.218;2023-04-19T04:16:09;11.60;99.90
62912;DHT22;49111;51.028;4.218;2023-04-19T04:18:36;11.70;99.90
62912;DHT22;49111;51.028;4.218;2023-04-19T04:21:04;11.70;99.90
62912;DHT22;49111;51.028;4.218;2023-04-19T04:23:31;11.80;99.90
62912;DHT22;49111;51.028;4.218;2023-04-19T04:25:59;11.80;99.90
62912;DHT22;49111;51.028;4.218;2023-04-19T04:28:36;11.70;99.90
62912;DHT22;49111;51.028;4.218;2023-04-19T04:31:02;11.60;99.90
62912;DHT22;49111;51.028;4.218;2023-04-19T04:33:31;11.60;99.90
62912;DHT22;49111;51.028;4.218;2023-04-19T04:35:58;11.60;99.90
62912;DHT22;49111;51.028;4.218;2023-04-19T04:38:28;11.70;99.90
62912;DHT22;49111;51.028;4.218;2023-04-19T04:40:54;11.70;99.90
62912;DHT22;49111;51.028;4.218;2023-04-19T04:43:22;11.60;99.90
62912;DHT22;49111;51.028;4.218;2023-04-19T04:45:48;11.80;99.90
62912;DHT22;49111;51.028;4.218;2023-04-19T04:48:14;11.70;99.90
62912;DHT22;49111;51.028;4.218;2023-04-19T04:50:41;11.70;99.90
62912;DHT22;49111;51.028;4.218;2023-04-19T04:53:07;11.70;99.90
62912;DHT22;49111;51.028;4.218;2023-04-19T04:55:33;11.70;99.90
62912;DHT22;49111;51.028;4.218;2023-04-19T04:57:59;11.60;99.90
62912;DHT22;49111;51.028;4.218;2023-04-19T05:01:00;11.60;99.90
62912;DHT22;49111;51.028;4.218;2023-04-19T05:03:27;11.70;99.90
62912;DHT22;49111;51.028;4.218;2023-04-19T05:05:57;11.60;99.90
62912;DHT22;49111;51.028;4.218;2023-04-19T05:08:25;11.50;99.90
62912;DHT22;49111;51.028;4.218;2023-04-19T05:10:54;11.50;99.90
62912;DHT22;49111;51.028;4.218;2023-04-19T05:13:23;11.50;99.90
62912;DHT22;49111;51.028;4.218;2023-04-19T05:15:49;11.50;99.90
62912;DHT22;49111;51.028;4.218;2023-04-19T05:18:15;11.60;99.90
62912;DHT22;49111;51.028;4.218;2023-04-19T05:20:41;11.50;99.90
62912;DHT22;49111;51.028;4.218;2023-04-19T05:23:17;11.50;99.90
62912;DHT22;49111;51.028;4.218;2023-04-19T05:25:43;11.40;99.90
62912;DHT22;49111;51.028;4.218;2023-04-19T05:28:09;11.30;99.90
62912;DHT22;49111;51.028;4.218;2023-04-19T05:30:44;11.40;99.90
62912;DHT22;49111;51.028;4.218;2023-04-19T05:33:10;11.30;99.90
62912;DHT22;49111;51.028;4.218;2023-04-19T05:35:37;11.30;99.90
62912;DHT22;49111;51.028;4.218;2023-04-19T05:38:03;11.20;99.90
62912;DHT22;49111;51.028;4.218;2023-04-19T05:40:28;11.20;99.90
62912;DHT22;49111;51.028;4.218;2023-04-19T05:42:55;11.30;99.90
62912;DHT22;49111;51.028;4.218;2023-04-19T05:45:21;11.20;99.90
62912;DHT22;49111;51.028;4.218;2023-04-19T05:47:47;11.20;99.90
62912;DHT22;49111;51.028;4.218;2023-04-19T05:50:15;11.20;99.90
62912;DHT22;49111;51.028;4.218;2023-04-19T05:52:52;11.20;99.90
62912;DHT22;49111;51.028;4.218;2023-04-19T05:55:18;11.20;99.90
62912;DHT22;49111;51.028;4.218;2023-04-19T05:57:45;11.30;99.90
62912;DHT22;49111;51.028;4.218;2023-04-19T06:00:11;11.30;99.90
62912;DHT22;49111;51.028;4.218;2023-04-19T06:02:46;11.40;99.90
62912;DHT22;49111;51.028;4.218;2023-04-19T06:05:13;11.40;99.90
62912;DHT22;49111;51.028;4.218;2023-04-19T06:07:40;11.50;99.90
62912;DHT22;49111;51.028;4.218;2023-04-19T06:10:06;11.60;99.90
62912;DHT22;49111;51.028;4.218;2023-04-19T06:12:32;11.70;99.90
62912;DHT22;49111;51.028;4.218;2023-04-19T06:14:58;11.80;99.90
62912;DHT22;49111;51.028;4.218;2023-04-19T06:17:25;11.70;99.90
62912;DHT22;49111;51.028;4.218;2023-04-19T06:19:51;11.90;99.90
62912;DHT22;49111;51.028;4.218;2023-04-19T06:22:17;11.90;99.90
62912;DHT22;49111;51.028;4.218;2023-04-19T06:24:44;12.00;99.90
62912;DHT22;49111;51.028;4.218;2023-04-19T06:27:14;12.10;99.90
62912;DHT22;49111;51.028;4.218;2023-04-19T06:29:41;12.10;99.90
62912;DHT22;49111;51.028;4.218;2023-04-19T06:32:08;12.20;99.90
62912;DHT22;49111;51.028;4.218;2023-04-19T06:34:34;12.30;99.90
62912;DHT22;49111;51.028;4.218;2023-04-19T06:36:59;12.40;99.90
62912;DHT22;49111;51.028;4.218;2023-04-19T06:39:25;12.50;99.90
62912;DHT22;49111;51.028;4.218;2023-04-19T06:41:52;12.60;99.90
62912;DHT22;49111;51.028;4.218;2023-04-19T06:44:19;12.70;99.90
62912;DHT22;49111;51.028;4.218;2023-04-19T06:46:45;12.80;99.90
62912;DHT22;49111;51.028;4.218;2023-04-19T06:49:10;12.80;99.90
62912;DHT22;49111;51.028;4.218;2023-04-19T06:51:38;12.80;99.90
62912;DHT22;49111;51.028;4.218;2023-04-19T06:54:04;12.80;99.90
62912;DHT22;49111;51.028;4.218;2023-04-19T06:56:44;12.90;99.90
62912;DHT22;49111;51.028;4.218;2023-04-19T06:59:11;13.00;99.90
62912;DHT22;49111;51.028;4.218;2023-04-19T07:01:37;13.20;99.90
62912;DHT22;49111;51.028;4.218;2023-04-19T07:04:05;13.00;99.90
62912;DHT22;49111;51.028;4.218;2023-04-19T07:06:31;13.20;99.90
62912;DHT22;49111;51.028;4.218;2023-04-19T07:08:57;13.10;99.90
62912;DHT22;49111;51.028;4.218;2023-04-19T07:11:23;13.20;99.90
62912;DHT22;49111;51.028;4.218;2023-04-19T07:13:49;13.10;99.90
62912;DHT22;49111;51.028;4.218;2023-04-19T07:16:16;12.90;99.90
62912;DHT22;49111;51.028;4.218;2023-04-19T07:18:42;12.80;99.90
62912;DHT22;49111;51.028;4.218;2023-04-19T07:21:09;12.80;99.90
62912;DHT22;49111;51.028;4.218;2023-04-19T07:23:35;12.90;99.90
62912;DHT22;49111;51.028;4.218;2023-04-19T07:26:01;12.90;99.90
62912;DHT22;49111;51.028;4.218;2023-04-19T07:28:30;12.90;99.90
62912;DHT22;49111;51.028;4.218;2023-04-19T07:30:56;12.80;99.90
62912;DHT22;49111;51.028;4.218;2023-04-19T07:33:22;12.80;99.90
62912;DHT22;49111;51.028;4.218;2023-04-19T07:35:50;12.90;99.90
62912;DHT22;49111;51.028;4.218;2023-04-19T07:38:16;12.90;99.90
62912;DHT22;49111;51.028;4.218;2023-04-19T07:40:42;13.00;99.90
62912;DHT22;49111;51.028;4.218;2023-04-19T07:43:08;13.00;99.90
62912;DHT22;49111;51.028;4.218;2023-04-19T07:45:34;12.90;99.90
62912;DHT22;49111;51.028;4.218;2023-04-19T07:48:00;12.90;99.90
62912;DHT22;49111;51.028;4.218;2023-04-19T07:50:26;12.90;99.90
62912;DHT22;49111;51.028;4.218;2023-04-19T07:52:52;12.90;99.90
62912;DHT22;49111;51.028;4.218;2023-04-19T07:55:18;13.00;99.90
62912;DHT22;49111;51.028;4.218;2023-04-19T07:57:44;13.00;99.90
62912;DHT22;49111;51.028;4.218;2023-04-19T08:00:14;13.10;99.90
62912;DHT22;49111;51.028;4.218;2023-04-19T08:02:47;13.20;99.90
62912;DHT22;49111;51.028;4.218;2023-04-19T08:05:14;13.20;99.90
62912;DHT22;49111;51.028;4.218;2023-04-19T08:07:44;13.30;99.90
62912;DHT22;49111;51.028;4.218;2023-04-19T08:10:10;13.40;99.90
62912;DHT22;49111;51.028;4.218;2023-04-19T08:12:36;13.40;99.90
62912;DHT22;49111;51.028;4.218;2023-04-19T08:15:04;13.50;99.90
62912;DHT22;49111;51.028;4.218;2023-04-19T08:17:32;13.50;99.90
62912;DHT22;49111;51.028;4.218;2023-04-19T08:19:58;13.50;99.90
62912;DHT22;49111;51.028;4.218;2023-04-19T08:22:24;13.50;99.90
62912;DHT22;49111;51.028;4.218;2023-04-19T08:24:50;13.50;99.90
62912;DHT22;49111;51.028;4.218;2023-04-19T08:27:16;13.60;99.90
62912;DHT22;49111;51.028;4.218;2023-04-19T08:29:43;13.60;99.90
62912;DHT22;49111;51.028;4.218;2023-04-19T08:32:10;13.70;99.90
62912;DHT22;49111;51.028;4.218;2023-04-19T08:34:37;13.70;99.90
62912;DHT22;49111;51.028;4.218;2023-04-19T08:37:03;13.80;99.90
62912;DHT22;49111;51.028;4.218;2023-04-19T08:39:31;13.80;99.90
62912;DHT22;49111;51.028;4.218;2023-04-19T08:42:05;13.80;99.90
62912;DHT22;49111;51.028;4.218;2023-04-19T08:44:36;13.90;99.90
62912;DHT22;49111;51.028;4.218;2023-04-19T08:47:06;14.10;99.90
62912;DHT22;49111;51.028;4.218;2023-04-19T08:49:38;14.20;99.90
62912;DHT22;49111;51.028;4.218;2023-04-19T08:52:06;14.30;99.90
62912;DHT22;49111;51.028;4.218;2023-04-19T08:54:34;14.40;99.90
62912;DHT22;49111;51.028;4.218;2023-04-19T08:57:01;14.40;99.90
62912;DHT22;49111;51.028;4.218;2023-04-19T08:59:28;14.50;99.90
62912;DHT22;49111;51.028;4.218;2023-04-19T09:02:00;14.60;99.90
62912;DHT22;49111;51.028;4.218;2023-04-19T09:04:26;14.70;99.90
62912;DHT22;49111;51.028;4.218;2023-04-19T09:06:52;14.70;99.90
62912;DHT22;49111;51.028;4.218;2023-04-19T09:09:26;14.90;99.90
62912;DHT22;49111;51.028;4.218;2023-04-19T09:11:53;14.90;99.90
62912;DHT22;49111;51.028;4.218;2023-04-19T09:14:20;15.00;99.90
62912;DHT22;49111;51.028;4.218;2023-04-19T09:16:47;14.80;99.90
62912;DHT22;49111;51.028;4.218;2023-04-19T09:19:13;14.90;99.90
62912;DHT22;49111;51.028;4.218;2023-04-19T09:21:41;14.80;99.90
62912;DHT22;49111;51.028;4.218;2023-04-19T09:24:07;14.90;99.90
62912;DHT22;49111;51.028;4.218;2023-04-19T09:26:34;15.00;99.90
62912;DHT22;49111;51.028;4.218;2023-04-19T09:29:02;15.00;99.90
62912;DHT22;49111;51.028;4.218;2023-04-19T09:31:33;15.20;99.90
62912;DHT22;49111;51.028;4.218;2023-04-19T09:34:16;15.20;99.90
62912;DHT22;49111;51.028;4.218;2023-04-19T09:36:43;15.40;99.90
62912;DHT22;49111;51.028;4.218;2023-04-19T09:39:09;15.60;99.90
62912;DHT22;49111;51.028;4.218;2023-04-19T09:41:52;15.60;99.90
62912;DHT22;49111;51.028;4.218;2023-04-19T09:44:19;15.80;99.90
62912;DHT22;49111;51.028;4.218;2023-04-19T09:46:45;15.80;99.90
62912;DHT22;49111;51.028;4.218;2023-04-19T09:51:43;16.00;99.90
62912;DHT22;49111;51.028;4.218;2023-04-19T09:54:11;16.10;99.90
62912;DHT22;49111;51.028;4.218;2023-04-19T09:56:37;16.30;99.90
62912;DHT22;49111;51.028;4.218;2023-04-19T09:59:07;16.40;99.90
62912;DHT22;49111;51.028;4.218;2023-04-19T10:01:51;16.60;99.90
62912;DHT22;49111;51.028;4.218;2023-04-19T10:04:19;16.60;99.90
62912;DHT22;49111;51.028;4.218;2023-04-19T10:06:50;16.60;99.90
62912;DHT22;49111;51.028;4.218;2023-04-19T10:09:17;16.50;99.60
62912;DHT22;49111;51.028;4.218;2023-04-19T10:11:50;16.60;99.90
62912;DHT22;49111;51.028;4.218;2023-04-19T10:14:21;16.70;99.90
62912;DHT22;49111;51.028;4.218;2023-04-19T10:16:49;16.80;99.90
62912;DHT22;49111;51.028;4.218;2023-04-19T10:19:19;17.00;99.90
62912;DHT22;49111;51.028;4.218;2023-04-19T10:21:47;17.10;99.70
62912;DHT22;49111;51.028;4.218;2023-04-19T10:24:14;17.20;98.70
62912;DHT22;49111;51.028;4.218;2023-04-19T10:27:10;17.30;98.90
62912;DHT22;49111;51.028;4.218;2023-04-19T10:30:00;17.30;97.40
62912;DHT22;49111;51.028;4.218;2023-04-19T10:32:29;17.40;97.10
62912;DHT22;49111;51.028;4.218;2023-04-19T10:35:01;17.40;97.40
62912;DHT22;49111;51.028;4.218;2023-04-19T10:37:30;17.40;97.50
62912;DHT22;49111;51.028;4.218;2023-04-19T10:39:56;17.50;97.30
62912;DHT22;49111;51.028;4.218;2023-04-19T10:42:22;17.60;97.00
62912;DHT22;49111;51.028;4.218;2023-04-19T10:47:51;17.50;96.60
62912;DHT22;49111;51.028;4.218;2023-04-19T10:50:17;17.50;97.30
62912;DHT22;49111;51.028;4.218;2023-04-19T10:52:43;17.50;96.40
62912;DHT22;49111;51.028;4.218;2023-04-19T10:55:14;17.50;96.40
62912;DHT22;49111;51.028;4.218;2023-04-19T11:00:27;17.90;96.20
62912;DHT22;49111;51.028;4.218;2023-04-19T11:02:56;17.90;95.20
62912;DHT22;49111;51.028;4.218;2023-04-19T11:05:22;18.00;95.60
62912;DHT22;49111;51.028;4.218;2023-04-19T11:07:48;18.10;95.00
62912;DHT22;49111;51.028;4.218;2023-04-19T11:10:27;18.40;95.10
62912;DHT22;49111;51.028;4.218;2023-04-19T11:12:54;18.60;93.80
62912;DHT22;49111;51.028;4.218;2023-04-19T11:15:23;18.70;94.30
62912;DHT22;49111;51.028;4.218;2023-04-19T11:17:50;18.70;93.20
62912;DHT22;49111;51.028;4.218;2023-04-19T11:20:16;18.70;92.70
62912;DHT22;49111;51.028;4.218;2023-04-19T11:22:45;18.60;91.70
62912;DHT22;49111;51.028;4.218;2023-04-19T11:25:19;18.80;93.20
62912;DHT22;49111;51.028;4.218;2023-04-19T11:27:47;18.70;91.60
62912;DHT22;49111;51.028;4.218;2023-04-19T11:30:15;18.90;93.20
62912;DHT22;49111;51.028;4.218;2023-04-19T11:32:47;19.00;93.10
62912;DHT22;49111;51.028;4.218;2023-04-19T11:35:13;19.20;92.50
62912;DHT22;49111;51.028;4.218;2023-04-19T11:37:40;19.20;92.30
62912;DHT22;49111;51.028;4.218;2023-04-19T11:40:06;19.50;92.40
62912;DHT22;49111;51.028;4.218;2023-04-19T11:42:34;19.40;90.50
62912;DHT22;49111;51.028;4.218;2023-04-19T11:45:01;19.40;90.10
62912;DHT22;49111;51.028;4.218;2023-04-19T11:47:27;19.40;90.10
62912;DHT22;49111;51.028;4.218;2023-04-19T11:49:56;19.30;90.00
62912;DHT22;49111;51.028;4.218;2023-04-19T11:52:25;19.30;91.50
62912;DHT22;49111;51.028;4.218;2023-04-19T11:54:54;19.20;88.40
62912;DHT22;49111;51.028;4.218;2023-04-19T11:57:30;19.30;89.20
62912;DHT22;49111;51.028;4.218;2023-04-19T12:00:04;19.30;84.90
62912;DHT22;49111;51.028;4.218;2023-04-19T12:02:41;19.10;84.30
62912;DHT22;49111;51.028;4.218;2023-04-19T12:05:12;19.10;85.70
62912;DHT22;49111;51.028;4.218;2023-04-19T12:08:01;19.20;86.40
62912;DHT22;49111;51.028;4.218;2023-04-19T12:10:28;19.20;81.80
62912;DHT22;49111;51.028;4.218;2023-04-19T12:12:54;19.00;80.30
62912;DHT22;49111;51.028;4.218;2023-04-19T12:15:20;19.00;82.90
62912;DHT22;49111;51.028;4.218;2023-04-19T12:17:59;19.10;81.20
62912;DHT22;49111;51.028;4.218;2023-04-19T12:20:33;19.20;79.70
62912;DHT22;49111;51.028;4.218;2023-04-19T12:22:59;19.30;78.70
62912;DHT22;49111;51.028;4.218;2023-04-19T12:25:30;19.40;78.70
62912;DHT22;49111;51.028;4.218;2023-04-19T12:27:56;19.40;77.50
62912;DHT22;49111;51.028;4.218;2023-04-19T12:30:22;19.60;77.90
62912;DHT22;49111;51.028;4.218;2023-04-19T12:32:48;19.50;75.10
62912;DHT22;49111;51.028;4.218;2023-04-19T12:35:16;19.50;73.10
62912;DHT22;49111;51.028;4.218;2023-04-19T12:37:42;19.30;74.50
62912;DHT22;49111;51.028;4.218;2023-04-19T12:40:08;19.30;74.70
62912;DHT22;49111;51.028;4.218;2023-04-19T12:42:34;19.40;72.80
62912;DHT22;49111;51.028;4.218;2023-04-19T12:45:00;19.50;72.10
62912;DHT22;49111;51.028;4.218;2023-04-19T12:47:26;19.40;69.80
62912;DHT22;49111;51.028;4.218;2023-04-19T12:49:52;19.20;68.60
62912;DHT22;49111;51.028;4.218;2023-04-19T12:52:20;19.30;69.30
62912;DHT22;49111;51.028;4.218;2023-04-19T12:54:46;19.30;69.20
62912;DHT22;49111;51.028;4.218;2023-04-19T12:57:12;19.20;69.50
62912;DHT22;49111;51.028;4.218;2023-04-19T12:59:38;19.30;69.30
62912;DHT22;49111;51.028;4.218;2023-04-19T13:02:04;19.40;66.50
62912;DHT22;49111;51.028;4.218;2023-04-19T13:04:30;19.50;69.70
62912;DHT22;49111;51.028;4.218;2023-04-19T13:06:56;19.60;67.40
62912;DHT22;49111;51.028;4.218;2023-04-19T13:09:22;19.50;67.60
62912;DHT22;49111;51.028;4.218;2023-04-19T13:11:48;19.40;65.30
62912;DHT22;49111;51.028;4.218;2023-04-19T13:14:14;19.40;64.90
62912;DHT22;49111;51.028;4.218;2023-04-19T13:16:40;19.60;66.30
62912;DHT22;49111;51.028;4.218;2023-04-19T13:19:05;19.60;65.70
62912;DHT22;49111;51.028;4.218;2023-04-19T13:21:32;19.70;63.40
62912;DHT22;49111;51.028;4.218;2023-04-19T13:23:58;19.70;63.80
62912;DHT22;49111;51.028;4.218;2023-04-19T13:26:24;19.70;62.70
62912;DHT22;49111;51.028;4.218;2023-04-19T13:28:50;19.60;61.70
62912;DHT22;49111;51.028;4.218;2023-04-19T13:31:16;19.50;61.70
62912;DHT22;49111;51.028;4.218;2023-04-19T13:33:42;19.40;60.30
62912;DHT22;49111;51.028;4.218;2023-04-19T13:36:07;19.30;61.10
62912;DHT22;49111;51.028;4.218;2023-04-19T13:38:33;19.20;60.10
62912;DHT22;49111;51.028;4.218;2023-04-19T13:41:02;19.30;60.60
62912;DHT22;49111;51.028;4.218;2023-04-19T13:43:28;19.30;58.50
62912;DHT22;49111;51.028;4.218;2023-04-19T13:45:54;19.30;58.60
62912;DHT22;49111;51.028;4.218;2023-04-19T13:48:21;19.50;60.00
62912;DHT22;49111;51.028;4.218;2023-04-19T13:50:47;19.50;57.40
62912;DHT22;49111;51.028;4.218;2023-04-19T13:53:14;19.50;58.70
62912;DHT22;49111;51.028;4.218;2023-04-19T13:55:40;19.70;57.70
62912;DHT22;49111;51.028;4.218;2023-04-19T13:58:06;19.80;58.00
62912;DHT22;49111;51.028;4.218;2023-04-19T14:00:32;19.70;56.40
62912;DHT22;49111;51.028;4.218;2023-04-19T14:02:58;19.60;56.80
62912;DHT22;49111;51.028;4.218;2023-04-19T14:05:24;19.50;55.80
